sensor_id;sensor_type;location;lat;lon;timestamp;P1;durP1;ratioP1;P2;durP2;ratioP2
3771;SDS011;1901;48.172;12.824;2023-03-23T00:00:17;10.33;;;6.10;;
3771;SDS011;1901;48.172;12.824;2023-03-23T00:02:44;8.40;;;6.40;;
3771;SDS011;1901;48.172;12.824;2023-03-23T00:05:11;7.47;;;5.80;;
3771;SDS011;1901;48.172;12.824;2023-03-23T00:07:38;7.53;;;5.87;;
3771;SDS011;1901;48.172;12.824;2023-03-23T00:10:11;7.50;;;5.90;;
3771;SDS011;1901;48.172;12.824;2023-03-23T00:12:38;8.83;;;6.37;;
3771;SDS011;1901;48.172;12.824;2023-03-23T00:15:07;9.17;;;6.20;;
3771;SDS011;1901;48.172;12.824;2023-03-23T00:17:38;8.67;;;6.87;;
3771;SDS011;1901;48.172;12.824;2023-03-23T00:20:05;8.10;;;6.33;;
3771;SDS011;1901;48.172;12.824;2023-03-23T00:22:35;6.87;;;5.63;;
3771;SDS011;1901;48.172;12.824;2023-03-23T00:25:03;7.00;;;5.80;;
3771;SDS011;1901;48.172;12.824;2023-03-23T00:27:31;8.17;;;6.77;;
3771;SDS011;1901;48.172;12.824;2023-03-23T00:29:58;9.50;;;6.40;;
3771;SDS011;1901;48.172;12.824;2023-03-23T00:32:25;8.83;;;5.90;;
3771;SDS011;1901;48.172;12.824;2023-03-23T00:34:53;8.70;;;5.83;;
3771;SDS011;1901;48.172;12.824;2023-03-23T00:37:21;9.43;;;5.97;;
3771;SDS011;1901;48.172;12.824;2023-03-23T00:39:49;10.00;;;6.00;;
3771;SDS011;1901;48.172;12.824;2023-03-23T00:42:17;5.80;;;5.20;;
3771;SDS011;1901;48.172;12.824;2023-03-23T00:44:45;6.70;;;5.63;;
3771;SDS011;1901;48.172;12.824;2023-03-23T00:47:13;9.13;;;6.37;;
3771;SDS011;1901;48.172;12.824;2023-03-23T00:49:42;8.20;;;6.03;;
3771;SDS011;1901;48.172;12.824;2023-03-23T00:52:09;8.60;;;5.50;;
3771;SDS011;1901;48.172;12.824;2023-03-23T00:54:37;6.47;;;4.90;;
3771;SDS011;1901;48.172;12.824;2023-03-23T00:57:04;8.20;;;5.67;;
3771;SDS011;1901;48.172;12.824;2023-03-23T00:59:32;8.40;;;5.97;;
3771;SDS011;1901;48.172;12.824;2023-03-23T01:02:00;7.63;;;5.60;;
3771;SDS011;1901;48.172;12.824;2023-03-23T01:04:28;10.50;;;5.67;;
3771;SDS011;1901;48.172;12.824;2023-03-23T01:06:56;7.73;;;6.37;;
3771;SDS011;1901;48.172;12.824;2023-03-23T01:09:25;8.90;;;5.37;;
3771;SDS011;1901;48.172;12.824;2023-03-23T01:11:53;9.40;;;6.00;;
3771;SDS011;1901;48.172;12.824;2023-03-23T01:14:21;11.43;;;5.70;;
3771;SDS011;1901;48.172;12.824;2023-03-23T01:16:50;6.00;;;5.00;;
3771;SDS011;1901;48.172;12.824;2023-03-23T01:19:18;6.20;;;5.40;;
3771;SDS011;1901;48.172;12.824;2023-03-23T01:21:45;5.63;;;4.43;;
3771;SDS011;1901;48.172;12.824;2023-03-23T01:24:12;6.43;;;4.70;;
3771;SDS011;1901;48.172;12.824;2023-03-23T01:26:40;5.23;;;4.73;;
3771;SDS011;1901;48.172;12.824;2023-03-23T01:29:07;8.77;;;4.77;;
3771;SDS011;1901;48.172;12.824;2023-03-23T01:31:34;6.23;;;4.93;;
3771;SDS011;1901;48.172;12.824;2023-03-23T01:34:02;7.80;;;5.13;;
3771;SDS011;1901;48.172;12.824;2023-03-23T01:36:31;6.00;;;4.70;;
3771;SDS011;1901;48.172;12.824;2023-03-23T01:38:58;5.10;;;4.60;;
3771;SDS011;1901;48.172;12.824;2023-03-23T01:41:28;7.60;;;4.50;;
3771;SDS011;1901;48.172;12.824;2023-03-23T01:43:59;5.03;;;4.40;;
3771;SDS011;1901;48.172;12.824;2023-03-23T01:46:28;8.50;;;4.60;;
3771;SDS011;1901;48.172;12.824;2023-03-23T01:48:55;8.67;;;5.43;;
3771;SDS011;1901;48.172;12.824;2023-03-23T01:51:23;6.00;;;5.40;;
3771;SDS011;1901;48.172;12.824;2023-03-23T01:53:53;6.20;;;4.87;;
3771;SDS011;1901;48.172;12.824;2023-03-23T01:56:22;4.97;;;4.53;;
3771;SDS011;1901;48.172;12.824;2023-03-23T01:58:50;5.80;;;5.00;;
3771;SDS011;1901;48.172;12.824;2023-03-23T02:01:18;9.90;;;5.57;;
3771;SDS011;1901;48.172;12.824;2023-03-23T02:03:46;5.73;;;5.00;;
3771;SDS011;1901;48.172;12.824;2023-03-23T02:06:14;6.57;;;4.90;;
3771;SDS011;1901;48.172;12.824;2023-03-23T02:08:41;7.70;;;5.97;;
3771;SDS011;1901;48.172;12.824;2023-03-23T02:11:14;7.67;;;5.27;;
3771;SDS011;1901;48.172;12.824;2023-03-23T02:13:41;14.20;;;5.67;;
3771;SDS011;1901;48.172;12.824;2023-03-23T02:16:10;14.53;;;5.63;;
3771;SDS011;1901;48.172;12.824;2023-03-23T02:18:44;7.93;;;5.37;;
3771;SDS011;1901;48.172;12.824;2023-03-23T02:21:27;6.47;;;5.73;;
3771;SDS011;1901;48.172;12.824;2023-03-23T02:26:58;5.83;;;4.93;;
3771;SDS011;1901;48.172;12.824;2023-03-23T02:29:35;6.60;;;5.73;;
3771;SDS011;1901;48.172;12.824;2023-03-23T02:32:10;7.60;;;5.87;;
3771;SDS011;1901;48.172;12.824;2023-03-23T02:34:40;5.80;;;5.23;;
3771;SDS011;1901;48.172;12.824;2023-03-23T02:37:09;6.57;;;5.87;;
3771;SDS011;1901;48.172;12.824;2023-03-23T02:39:39;6.53;;;5.57;;
3771;SDS011;1901;48.172;12.824;2023-03-23T02:42:09;7.93;;;5.70;;
3771;SDS011;1901;48.172;12.824;2023-03-23T02:44:38;8.70;;;5.50;;
3771;SDS011;1901;48.172;12.824;2023-03-23T02:47:06;8.50;;;5.57;;
3771;SDS011;1901;48.172;12.824;2023-03-23T02:49:35;7.60;;;5.20;;
3771;SDS011;1901;48.172;12.824;2023-03-23T02:52:07;5.60;;;5.00;;
3771;SDS011;1901;48.172;12.824;2023-03-23T02:54:37;8.90;;;6.50;;
3771;SDS011;1901;48.172;12.824;2023-03-23T02:57:05;8.60;;;5.57;;
3771;SDS011;1901;48.172;12.824;2023-03-23T02:59:32;6.60;;;4.80;;
3771;SDS011;1901;48.172;12.824;2023-03-23T03:02:01;5.33;;;4.20;;
3771;SDS011;1901;48.172;12.824;2023-03-23T03:04:28;7.90;;;5.97;;
3771;SDS011;1901;48.172;12.824;2023-03-23T03:09:48;8.43;;;6.23;;
3771;SDS011;1901;48.172;12.824;2023-03-23T03:12:19;8.33;;;5.60;;
3771;SDS011;1901;48.172;12.824;2023-03-23T03:14:49;6.60;;;5.40;;
3771;SDS011;1901;48.172;12.824;2023-03-23T03:17:19;9.10;;;5.73;;
3771;SDS011;1901;48.172;12.824;2023-03-23T03:19:47;12.47;;;6.70;;
3771;SDS011;1901;48.172;12.824;2023-03-23T03:22:16;6.60;;;5.57;;
3771;SDS011;1901;48.172;12.824;2023-03-23T03:24:45;7.00;;;6.30;;
3771;SDS011;1901;48.172;12.824;2023-03-23T03:27:16;6.67;;;5.90;;
3771;SDS011;1901;48.172;12.824;2023-03-23T03:29:44;6.37;;;5.27;;
3771;SDS011;1901;48.172;12.824;2023-03-23T03:32:15;7.57;;;5.50;;
3771;SDS011;1901;48.172;12.824;2023-03-23T03:34:43;6.60;;;5.50;;
3771;SDS011;1901;48.172;12.824;2023-03-23T03:37:12;5.60;;;5.10;;
3771;SDS011;1901;48.172;12.824;2023-03-23T03:39:40;10.73;;;5.00;;
3771;SDS011;1901;48.172;12.824;2023-03-23T03:42:07;5.40;;;4.40;;
3771;SDS011;1901;48.172;12.824;2023-03-23T03:44:35;6.27;;;5.40;;
3771;SDS011;1901;48.172;12.824;2023-03-23T03:47:02;6.23;;;5.37;;
3771;SDS011;1901;48.172;12.824;2023-03-23T03:49:30;6.67;;;4.57;;
3771;SDS011;1901;48.172;12.824;2023-03-23T03:51:57;5.50;;;4.67;;
3771;SDS011;1901;48.172;12.824;2023-03-23T03:54:24;7.43;;;5.23;;
3771;SDS011;1901;48.172;12.824;2023-03-23T03:56:51;7.67;;;4.87;;
3771;SDS011;1901;48.172;12.824;2023-03-23T03:59:22;5.00;;;4.33;;
3771;SDS011;1901;48.172;12.824;2023-03-23T04:01:52;8.60;;;4.73;;
3771;SDS011;1901;48.172;12.824;2023-03-23T04:04:19;5.37;;;4.53;;
3771;SDS011;1901;48.172;12.824;2023-03-23T04:06:47;4.00;;;3.40;;
3771;SDS011;1901;48.172;12.824;2023-03-23T04:09:14;5.57;;;4.70;;
3771;SDS011;1901;48.172;12.824;2023-03-23T04:11:42;9.27;;;4.17;;
3771;SDS011;1901;48.172;12.824;2023-03-23T04:14:09;4.50;;;3.57;;
3771;SDS011;1901;48.172;12.824;2023-03-23T04:16:36;4.17;;;3.73;;
3771;SDS011;1901;48.172;12.824;2023-03-23T04:19:05;5.40;;;4.60;;
3771;SDS011;1901;48.172;12.824;2023-03-23T04:21:32;9.13;;;5.30;;
3771;SDS011;1901;48.172;12.824;2023-03-23T04:23:59;7.63;;;5.90;;
3771;SDS011;1901;48.172;12.824;2023-03-23T04:26:28;10.73;;;5.57;;
3771;SDS011;1901;48.172;12.824;2023-03-23T04:28:55;9.33;;;5.90;;
3771;SDS011;1901;48.172;12.824;2023-03-23T04:31:23;9.33;;;6.27;;
3771;SDS011;1901;48.172;12.824;2023-03-23T04:33:51;13.73;;;6.40;;
3771;SDS011;1901;48.172;12.824;2023-03-23T04:36:19;7.47;;;5.80;;
3771;SDS011;1901;48.172;12.824;2023-03-23T04:38:47;8.10;;;5.83;;
3771;SDS011;1901;48.172;12.824;2023-03-23T04:41:15;8.10;;;6.33;;
3771;SDS011;1901;48.172;12.824;2023-03-23T04:43:42;5.60;;;4.60;;
3771;SDS011;1901;48.172;12.824;2023-03-23T04:46:09;9.53;;;6.77;;
3771;SDS011;1901;48.172;12.824;2023-03-23T04:48:36;9.43;;;5.87;;
3771;SDS011;1901;48.172;12.824;2023-03-23T04:51:05;8.67;;;5.97;;
3771;SDS011;1901;48.172;12.824;2023-03-23T04:53:33;9.60;;;7.80;;
3771;SDS011;1901;48.172;12.824;2023-03-23T04:56:01;12.83;;;6.90;;
3771;SDS011;1901;48.172;12.824;2023-03-23T04:58:28;10.63;;;6.70;;
3771;SDS011;1901;48.172;12.824;2023-03-23T05:00:58;7.80;;;6.20;;
3771;SDS011;1901;48.172;12.824;2023-03-23T05:03:25;12.33;;;6.30;;
3771;SDS011;1901;48.172;12.824;2023-03-23T05:05:53;6.27;;;5.50;;
3771;SDS011;1901;48.172;12.824;2023-03-23T05:08:20;5.40;;;4.90;;
3771;SDS011;1901;48.172;12.824;2023-03-23T05:10:52;8.40;;;6.40;;
3771;SDS011;1901;48.172;12.824;2023-03-23T05:13:20;8.50;;;5.90;;
3771;SDS011;1901;48.172;12.824;2023-03-23T05:15:47;10.20;;;4.77;;
3771;SDS011;1901;48.172;12.824;2023-03-23T05:18:14;5.60;;;3.97;;
3771;SDS011;1901;48.172;12.824;2023-03-23T05:20:41;5.60;;;5.00;;
3771;SDS011;1901;48.172;12.824;2023-03-23T05:23:11;6.90;;;4.57;;
3771;SDS011;1901;48.172;12.824;2023-03-23T05:25:39;5.57;;;4.50;;
3771;SDS011;1901;48.172;12.824;2023-03-23T05:28:08;9.40;;;5.00;;
3771;SDS011;1901;48.172;12.824;2023-03-23T05:30:35;20.57;;;9.77;;
3771;SDS011;1901;48.172;12.824;2023-03-23T05:33:03;8.13;;;7.20;;
3771;SDS011;1901;48.172;12.824;2023-03-23T05:35:30;6.30;;;4.80;;
3771;SDS011;1901;48.172;12.824;2023-03-23T05:37:57;5.37;;;4.83;;
3771;SDS011;1901;48.172;12.824;2023-03-23T05:40:25;7.10;;;4.60;;
3771;SDS011;1901;48.172;12.824;2023-03-23T05:42:52;6.13;;;5.47;;
3771;SDS011;1901;48.172;12.824;2023-03-23T05:45:23;9.23;;;7.17;;
3771;SDS011;1901;48.172;12.824;2023-03-23T05:47:51;8.23;;;5.67;;
3771;SDS011;1901;48.172;12.824;2023-03-23T05:50:18;6.37;;;4.80;;
3771;SDS011;1901;48.172;12.824;2023-03-23T05:52:45;6.10;;;4.27;;
3771;SDS011;1901;48.172;12.824;2023-03-23T05:55:13;5.27;;;3.87;;
3771;SDS011;1901;48.172;12.824;2023-03-23T05:57:40;8.50;;;5.23;;
3771;SDS011;1901;48.172;12.824;2023-03-23T06:00:08;10.23;;;6.50;;
3771;SDS011;1901;48.172;12.824;2023-03-23T06:02:46;11.90;;;6.97;;
3771;SDS011;1901;48.172;12.824;2023-03-23T06:05:14;12.00;;;6.47;;
3771;SDS011;1901;48.172;12.824;2023-03-23T06:07:41;5.63;;;4.80;;
3771;SDS011;1901;48.172;12.824;2023-03-23T06:10:09;14.53;;;8.67;;
3771;SDS011;1901;48.172;12.824;2023-03-23T06:12:37;26.10;;;14.37;;
3771;SDS011;1901;48.172;12.824;2023-03-23T06:15:04;13.33;;;8.20;;
3771;SDS011;1901;48.172;12.824;2023-03-23T06:17:32;25.47;;;14.40;;
3771;SDS011;1901;48.172;12.824;2023-03-23T06:20:01;27.03;;;13.73;;
3771;SDS011;1901;48.172;12.824;2023-03-23T06:22:34;8.47;;;5.60;;
3771;SDS011;1901;48.172;12.824;2023-03-23T06:25:01;4.60;;;3.93;;
3771;SDS011;1901;48.172;12.824;2023-03-23T06:27:28;4.73;;;2.97;;
3771;SDS011;1901;48.172;12.824;2023-03-23T06:29:55;5.43;;;3.83;;
3771;SDS011;1901;48.172;12.824;2023-03-23T06:32:22;5.03;;;3.77;;
3771;SDS011;1901;48.172;12.824;2023-03-23T06:34:50;5.73;;;3.20;;
3771;SDS011;1901;48.172;12.824;2023-03-23T06:37:19;4.10;;;3.23;;
3771;SDS011;1901;48.172;12.824;2023-03-23T06:39:47;3.10;;;2.83;;
3771;SDS011;1901;48.172;12.824;2023-03-23T06:42:14;5.07;;;3.53;;
3771;SDS011;1901;48.172;12.824;2023-03-23T06:44:43;7.00;;;4.60;;
3771;SDS011;1901;48.172;12.824;2023-03-23T06:47:10;6.50;;;2.90;;
3771;SDS011;1901;48.172;12.824;2023-03-23T06:49:37;2.70;;;2.33;;
3771;SDS011;1901;48.172;12.824;2023-03-23T06:52:04;2.90;;;2.37;;
3771;SDS011;1901;48.172;12.824;2023-03-23T06:54:33;5.10;;;3.33;;
3771;SDS011;1901;48.172;12.824;2023-03-23T06:57:00;4.37;;;3.00;;
3771;SDS011;1901;48.172;12.824;2023-03-23T06:59:27;7.13;;;3.30;;
3771;SDS011;1901;48.172;12.824;2023-03-23T07:01:54;5.77;;;3.60;;
3771;SDS011;1901;48.172;12.824;2023-03-23T07:04:22;3.00;;;2.70;;
3771;SDS011;1901;48.172;12.824;2023-03-23T07:06:49;4.77;;;2.70;;
3771;SDS011;1901;48.172;12.824;2023-03-23T07:09:16;3.97;;;2.50;;
3771;SDS011;1901;48.172;12.824;2023-03-23T07:11:45;3.90;;;3.30;;
3771;SDS011;1901;48.172;12.824;2023-03-23T07:14:12;4.67;;;4.13;;
3771;SDS011;1901;48.172;12.824;2023-03-23T07:16:40;6.57;;;3.50;;
3771;SDS011;1901;48.172;12.824;2023-03-23T07:19:07;3.80;;;3.40;;
3771;SDS011;1901;48.172;12.824;2023-03-23T07:21:34;3.33;;;3.03;;
3771;SDS011;1901;48.172;12.824;2023-03-23T07:24:01;3.30;;;3.00;;
3771;SDS011;1901;48.172;12.824;2023-03-23T07:26:28;3.37;;;3.07;;
3771;SDS011;1901;48.172;12.824;2023-03-23T07:28:57;3.80;;;3.23;;
3771;SDS011;1901;48.172;12.824;2023-03-23T07:31:24;6.70;;;3.43;;
3771;SDS011;1901;48.172;12.824;2023-03-23T07:33:51;4.27;;;3.87;;
3771;SDS011;1901;48.172;12.824;2023-03-23T07:36:19;8.10;;;3.93;;
3771;SDS011;1901;48.172;12.824;2023-03-23T07:38:46;5.70;;;3.70;;
3771;SDS011;1901;48.172;12.824;2023-03-23T07:41:14;3.50;;;3.20;;
3771;SDS011;1901;48.172;12.824;2023-03-23T07:43:41;5.13;;;4.63;;
3771;SDS011;1901;48.172;12.824;2023-03-23T07:46:09;6.00;;;4.30;;
3771;SDS011;1901;48.172;12.824;2023-03-23T07:48:37;4.80;;;3.13;;
3771;SDS011;1901;48.172;12.824;2023-03-23T07:51:04;4.50;;;3.63;;
3771;SDS011;1901;48.172;12.824;2023-03-23T07:53:32;4.40;;;4.00;;
3771;SDS011;1901;48.172;12.824;2023-03-23T07:55:59;8.87;;;3.40;;
3771;SDS011;1901;48.172;12.824;2023-03-23T07:58:27;3.73;;;3.30;;
3771;SDS011;1901;48.172;12.824;2023-03-23T08:00:54;6.97;;;3.53;;
3771;SDS011;1901;48.172;12.824;2023-03-23T08:03:24;6.30;;;3.60;;
3771;SDS011;1901;48.172;12.824;2023-03-23T08:05:51;5.30;;;3.40;;
3771;SDS011;1901;48.172;12.824;2023-03-23T08:08:19;3.97;;;3.00;;
3771;SDS011;1901;48.172;12.824;2023-03-23T08:10:48;10.17;;;5.60;;
3771;SDS011;1901;48.172;12.824;2023-03-23T08:13:15;9.20;;;3.77;;
3771;SDS011;1901;48.172;12.824;2023-03-23T08:15:43;8.97;;;5.43;;
3771;SDS011;1901;48.172;12.824;2023-03-23T08:18:10;4.00;;;3.50;;
3771;SDS011;1901;48.172;12.824;2023-03-23T08:20:39;8.00;;;4.30;;
3771;SDS011;1901;48.172;12.824;2023-03-23T08:23:24;12.93;;;3.77;;
3771;SDS011;1901;48.172;12.824;2023-03-23T08:25:56;5.20;;;3.00;;
3771;SDS011;1901;48.172;12.824;2023-03-23T08:28:24;3.73;;;2.60;;
3771;SDS011;1901;48.172;12.824;2023-03-23T08:30:52;6.33;;;5.40;;
3771;SDS011;1901;48.172;12.824;2023-03-23T08:33:20;6.33;;;4.27;;
3771;SDS011;1901;48.172;12.824;2023-03-23T08:35:55;4.23;;;3.60;;
3771;SDS011;1901;48.172;12.824;2023-03-23T08:38:22;5.47;;;3.43;;
3771;SDS011;1901;48.172;12.824;2023-03-23T08:40:49;4.53;;;3.77;;
3771;SDS011;1901;48.172;12.824;2023-03-23T08:43:17;3.27;;;2.97;;
3771;SDS011;1901;48.172;12.824;2023-03-23T08:45:44;4.40;;;3.10;;
3771;SDS011;1901;48.172;12.824;2023-03-23T08:48:11;5.43;;;3.20;;
3771;SDS011;1901;48.172;12.824;2023-03-23T08:50:38;4.00;;;3.00;;
3771;SDS011;1901;48.172;12.824;2023-03-23T08:53:07;3.33;;;2.60;;
3771;SDS011;1901;48.172;12.824;2023-03-23T08:55:34;3.97;;;3.17;;
3771;SDS011;1901;48.172;12.824;2023-03-23T08:58:02;3.67;;;3.20;;
3771;SDS011;1901;48.172;12.824;2023-03-23T09:00:29;4.30;;;3.67;;
3771;SDS011;1901;48.172;12.824;2023-03-23T09:02:57;2.83;;;2.43;;
3771;SDS011;1901;48.172;12.824;2023-03-23T09:05:25;3.20;;;2.80;;
3771;SDS011;1901;48.172;12.824;2023-03-23T09:07:53;6.10;;;3.10;;
3771;SDS011;1901;48.172;12.824;2023-03-23T09:10:22;2.90;;;2.47;;
3771;SDS011;1901;48.172;12.824;2023-03-23T09:12:51;3.30;;;3.00;;
3771;SDS011;1901;48.172;12.824;2023-03-23T09:15:18;6.30;;;3.00;;
3771;SDS011;1901;48.172;12.824;2023-03-23T09:17:46;4.17;;;3.17;;
3771;SDS011;1901;48.172;12.824;2023-03-23T09:20:15;4.67;;;2.33;;
3771;SDS011;1901;48.172;12.824;2023-03-23T09:22:46;9.50;;;2.83;;
3771;SDS011;1901;48.172;12.824;2023-03-23T09:25:14;6.50;;;3.40;;
3771;SDS011;1901;48.172;12.824;2023-03-23T09:27:43;7.80;;;5.13;;
3771;SDS011;1901;48.172;12.824;2023-03-23T09:30:12;4.67;;;2.70;;
3771;SDS011;1901;48.172;12.824;2023-03-23T09:32:40;12.93;;;4.60;;
3771;SDS011;1901;48.172;12.824;2023-03-23T09:35:09;4.33;;;3.20;;
3771;SDS011;1901;48.172;12.824;2023-03-23T09:37:38;3.30;;;2.73;;
3771;SDS011;1901;48.172;12.824;2023-03-23T09:40:06;5.83;;;3.07;;
3771;SDS011;1901;48.172;12.824;2023-03-23T09:42:38;4.30;;;3.20;;
3771;SDS011;1901;48.172;12.824;2023-03-23T09:45:12;4.53;;;3.13;;
3771;SDS011;1901;48.172;12.824;2023-03-23T09:47:43;6.10;;;3.37;;
3771;SDS011;1901;48.172;12.824;2023-03-23T09:50:14;4.80;;;2.80;;
3771;SDS011;1901;48.172;12.824;2023-03-23T09:52:43;14.50;;;6.90;;
3771;SDS011;1901;48.172;12.824;2023-03-23T09:55:11;5.53;;;5.00;;
3771;SDS011;1901;48.172;12.824;2023-03-23T09:57:42;4.23;;;3.30;;
3771;SDS011;1901;48.172;12.824;2023-03-23T10:00:12;5.93;;;3.40;;
3771;SDS011;1901;48.172;12.824;2023-03-23T10:02:43;6.27;;;2.80;;
3771;SDS011;1901;48.172;12.824;2023-03-23T10:05:20;5.97;;;3.50;;
3771;SDS011;1901;48.172;12.824;2023-03-23T10:07:49;3.60;;;2.80;;
3771;SDS011;1901;48.172;12.824;2023-03-23T10:10:16;6.97;;;3.60;;
3771;SDS011;1901;48.172;12.824;2023-03-23T10:12:45;6.07;;;4.03;;
3771;SDS011;1901;48.172;12.824;2023-03-23T10:15:16;4.60;;;3.50;;
3771;SDS011;1901;48.172;12.824;2023-03-23T10:17:47;4.03;;;3.20;;
3771;SDS011;1901;48.172;12.824;2023-03-23T10:20:32;4.97;;;3.80;;
3771;SDS011;1901;48.172;12.824;2023-03-23T10:23:02;4.10;;;3.67;;
3771;SDS011;1901;48.172;12.824;2023-03-23T10:25:34;4.70;;;2.87;;
3771;SDS011;1901;48.172;12.824;2023-03-23T10:28:04;6.17;;;4.90;;
3771;SDS011;1901;48.172;12.824;2023-03-23T10:30:34;6.40;;;3.30;;
3771;SDS011;1901;48.172;12.824;2023-03-23T10:33:03;3.87;;;3.20;;
3771;SDS011;1901;48.172;12.824;2023-03-23T10:35:32;6.93;;;3.40;;
3771;SDS011;1901;48.172;12.824;2023-03-23T10:38:01;3.33;;;2.93;;
3771;SDS011;1901;48.172;12.824;2023-03-23T10:40:29;4.63;;;3.00;;
3771;SDS011;1901;48.172;12.824;2023-03-23T10:42:58;5.90;;;3.50;;
3771;SDS011;1901;48.172;12.824;2023-03-23T10:45:26;6.63;;;2.90;;
3771;SDS011;1901;48.172;12.824;2023-03-23T10:47:58;5.13;;;3.40;;
3771;SDS011;1901;48.172;12.824;2023-03-23T10:50:27;5.90;;;3.23;;
3771;SDS011;1901;48.172;12.824;2023-03-23T10:52:56;3.43;;;3.13;;
3771;SDS011;1901;48.172;12.824;2023-03-23T10:55:25;3.67;;;2.77;;
3771;SDS011;1901;48.172;12.824;2023-03-23T10:58:04;6.60;;;2.93;;
3771;SDS011;1901;48.172;12.824;2023-03-23T11:00:31;3.73;;;3.10;;
3771;SDS011;1901;48.172;12.824;2023-03-23T11:03:00;3.60;;;3.10;;
3771;SDS011;1901;48.172;12.824;2023-03-23T11:05:32;4.87;;;3.10;;
3771;SDS011;1901;48.172;12.824;2023-03-23T11:08:00;3.10;;;2.73;;
3771;SDS011;1901;48.172;12.824;2023-03-23T11:10:28;4.27;;;3.10;;
3771;SDS011;1901;48.172;12.824;2023-03-23T11:13:00;4.07;;;2.80;;
3771;SDS011;1901;48.172;12.824;2023-03-23T11:15:29;6.90;;;2.50;;
3771;SDS011;1901;48.172;12.824;2023-03-23T11:17:58;10.70;;;3.03;;
3771;SDS011;1901;48.172;12.824;2023-03-23T11:20:27;4.20;;;3.00;;
3771;SDS011;1901;48.172;12.824;2023-03-23T11:22:55;3.40;;;2.80;;
3771;SDS011;1901;48.172;12.824;2023-03-23T11:25:23;6.93;;;3.43;;
3771;SDS011;1901;48.172;12.824;2023-03-23T11:27:51;4.20;;;2.53;;
3771;SDS011;1901;48.172;12.824;2023-03-23T11:30:20;3.43;;;3.13;;
3771;SDS011;1901;48.172;12.824;2023-03-23T11:32:49;2.60;;;2.20;;
3771;SDS011;1901;48.172;12.824;2023-03-23T11:35:19;3.57;;;3.27;;
3771;SDS011;1901;48.172;12.824;2023-03-23T11:37:48;3.50;;;2.60;;
3771;SDS011;1901;48.172;12.824;2023-03-23T11:40:17;4.80;;;2.83;;
3771;SDS011;1901;48.172;12.824;2023-03-23T11:42:45;3.20;;;2.90;;
3771;SDS011;1901;48.172;12.824;2023-03-23T11:45:14;5.30;;;2.60;;
3771;SDS011;1901;48.172;12.824;2023-03-23T11:47:43;4.87;;;2.87;;
3771;SDS011;1901;48.172;12.824;2023-03-23T11:50:14;4.90;;;2.90;;
3771;SDS011;1901;48.172;12.824;2023-03-23T11:52:43;6.73;;;2.37;;
3771;SDS011;1901;48.172;12.824;2023-03-23T11:55:14;7.27;;;2.90;;
3771;SDS011;1901;48.172;12.824;2023-03-23T11:57:42;3.97;;;2.90;;
3771;SDS011;1901;48.172;12.824;2023-03-23T12:00:14;3.77;;;2.77;;
3771;SDS011;1901;48.172;12.824;2023-03-23T12:02:43;2.57;;;2.17;;
3771;SDS011;1901;48.172;12.824;2023-03-23T12:05:27;4.23;;;2.70;;
3771;SDS011;1901;48.172;12.824;2023-03-23T12:08:00;3.07;;;2.47;;
3771;SDS011;1901;48.172;12.824;2023-03-23T12:10:33;5.00;;;2.20;;
3771;SDS011;1901;48.172;12.824;2023-03-23T12:13:05;4.43;;;3.10;;
3771;SDS011;1901;48.172;12.824;2023-03-23T12:15:38;2.70;;;2.33;;
3771;SDS011;1901;48.172;12.824;2023-03-23T12:18:09;2.40;;;2.10;;
3771;SDS011;1901;48.172;12.824;2023-03-23T12:20:41;3.13;;;2.77;;
3771;SDS011;1901;48.172;12.824;2023-03-23T12:23:15;3.30;;;2.37;;
3771;SDS011;1901;48.172;12.824;2023-03-23T12:26:02;2.70;;;2.10;;
3771;SDS011;1901;48.172;12.824;2023-03-23T12:28:37;3.30;;;2.83;;
3771;SDS011;1901;48.172;12.824;2023-03-23T12:31:10;3.40;;;2.40;;
3771;SDS011;1901;48.172;12.824;2023-03-23T12:33:42;3.43;;;2.30;;
3771;SDS011;1901;48.172;12.824;2023-03-23T12:36:15;2.47;;;2.23;;
3771;SDS011;1901;48.172;12.824;2023-03-23T12:41:31;3.13;;;2.23;;
3771;SDS011;1901;48.172;12.824;2023-03-23T12:44:01;4.60;;;2.20;;
3771;SDS011;1901;48.172;12.824;2023-03-23T12:46:41;2.63;;;2.43;;
3771;SDS011;1901;48.172;12.824;2023-03-23T12:49:12;3.80;;;2.57;;
3771;SDS011;1901;48.172;12.824;2023-03-23T12:51:42;5.00;;;2.57;;
3771;SDS011;1901;48.172;12.824;2023-03-23T12:54:11;3.30;;;2.10;;
3771;SDS011;1901;48.172;12.824;2023-03-23T12:56:44;3.83;;;2.50;;
3771;SDS011;1901;48.172;12.824;2023-03-23T12:59:14;2.50;;;2.00;;
3771;SDS011;1901;48.172;12.824;2023-03-23T13:01:43;3.97;;;2.23;;
3771;SDS011;1901;48.172;12.824;2023-03-23T13:04:11;5.13;;;2.40;;
3771;SDS011;1901;48.172;12.824;2023-03-23T13:06:41;2.60;;;2.40;;
3771;SDS011;1901;48.172;12.824;2023-03-23T13:09:10;5.23;;;2.87;;
3771;SDS011;1901;48.172;12.824;2023-03-23T13:11:40;4.50;;;2.90;;
3771;SDS011;1901;48.172;12.824;2023-03-23T13:17:03;4.73;;;2.30;;
3771;SDS011;1901;48.172;12.824;2023-03-23T13:19:35;3.80;;;2.70;;
3771;SDS011;1901;48.172;12.824;2023-03-23T13:22:04;3.50;;;2.57;;
3771;SDS011;1901;48.172;12.824;2023-03-23T13:24:33;3.10;;;2.47;;
3771;SDS011;1901;48.172;12.824;2023-03-23T13:27:04;3.57;;;2.60;;
3771;SDS011;1901;48.172;12.824;2023-03-23T13:29:32;2.97;;;2.67;;
3771;SDS011;1901;48.172;12.824;2023-03-23T13:32:10;4.03;;;2.73;;
3771;SDS011;1901;48.172;12.824;2023-03-23T13:34:39;4.57;;;2.90;;
3771;SDS011;1901;48.172;12.824;2023-03-23T13:37:09;2.80;;;2.60;;
3771;SDS011;1901;48.172;12.824;2023-03-23T13:39:37;4.47;;;2.80;;
3771;SDS011;1901;48.172;12.824;2023-03-23T13:42:16;2.77;;;2.47;;
3771;SDS011;1901;48.172;12.824;2023-03-23T13:44:54;3.37;;;2.40;;
3771;SDS011;1901;48.172;12.824;2023-03-23T13:47:27;3.00;;;2.30;;
3771;SDS011;1901;48.172;12.824;2023-03-23T13:49:57;2.67;;;2.30;;
3771;SDS011;1901;48.172;12.824;2023-03-23T13:52:35;3.27;;;2.40;;
3771;SDS011;1901;48.172;12.824;2023-03-23T13:55:20;4.47;;;2.67;;
3771;SDS011;1901;48.172;12.824;2023-03-23T13:57:51;3.80;;;2.53;;
3771;SDS011;1901;48.172;12.824;2023-03-23T14:00:36;4.40;;;3.10;;
3771;SDS011;1901;48.172;12.824;2023-03-23T14:03:05;3.10;;;2.80;;
3771;SDS011;1901;48.172;12.824;2023-03-23T14:05:37;5.57;;;2.70;;
3771;SDS011;1901;48.172;12.824;2023-03-23T14:08:10;7.00;;;3.00;;
3771;SDS011;1901;48.172;12.824;2023-03-23T14:10:39;5.23;;;2.90;;
3771;SDS011;1901;48.172;12.824;2023-03-23T14:13:10;3.70;;;3.40;;
3771;SDS011;1901;48.172;12.824;2023-03-23T14:15:41;5.10;;;4.00;;
3771;SDS011;1901;48.172;12.824;2023-03-23T14:18:13;4.77;;;3.70;;
3771;SDS011;1901;48.172;12.824;2023-03-23T14:20:41;5.50;;;3.37;;
3771;SDS011;1901;48.172;12.824;2023-03-23T14:23:14;4.83;;;2.93;;
3771;SDS011;1901;48.172;12.824;2023-03-23T14:25:41;3.33;;;2.80;;
3771;SDS011;1901;48.172;12.824;2023-03-23T14:28:16;8.53;;;3.37;;
3771;SDS011;1901;48.172;12.824;2023-03-23T14:30:43;4.30;;;2.90;;
3771;SDS011;1901;48.172;12.824;2023-03-23T14:33:10;5.33;;;3.67;;
3771;SDS011;1901;48.172;12.824;2023-03-23T14:35:42;2.90;;;2.23;;
3771;SDS011;1901;48.172;12.824;2023-03-23T14:38:13;3.87;;;2.80;;
3771;SDS011;1901;48.172;12.824;2023-03-23T14:40:41;4.90;;;2.80;;
3771;SDS011;1901;48.172;12.824;2023-03-23T14:43:08;4.33;;;2.90;;
3771;SDS011;1901;48.172;12.824;2023-03-23T14:45:38;5.00;;;3.00;;
3771;SDS011;1901;48.172;12.824;2023-03-23T14:48:05;3.77;;;3.40;;
3771;SDS011;1901;48.172;12.824;2023-03-23T14:50:36;3.90;;;3.40;;
3771;SDS011;1901;48.172;12.824;2023-03-23T14:53:09;5.53;;;3.50;;
3771;SDS011;1901;48.172;12.824;2023-03-23T14:55:38;4.37;;;3.40;;
3771;SDS011;1901;48.172;12.824;2023-03-23T14:58:08;4.73;;;3.00;;
3771;SDS011;1901;48.172;12.824;2023-03-23T15:00:38;4.37;;;3.20;;
3771;SDS011;1901;48.172;12.824;2023-03-23T15:03:06;7.00;;;3.70;;
3771;SDS011;1901;48.172;12.824;2023-03-23T15:05:35;4.93;;;3.83;;
3771;SDS011;1901;48.172;12.824;2023-03-23T15:08:05;5.37;;;3.73;;
3771;SDS011;1901;48.172;12.824;2023-03-23T15:10:34;6.40;;;3.40;;
3771;SDS011;1901;48.172;12.824;2023-03-23T15:13:01;3.87;;;2.97;;
3771;SDS011;1901;48.172;12.824;2023-03-23T15:15:29;2.93;;;2.67;;
3771;SDS011;1901;48.172;12.824;2023-03-23T15:17:56;4.87;;;3.40;;
3771;SDS011;1901;48.172;12.824;2023-03-23T15:20:26;7.07;;;5.53;;
3771;SDS011;1901;48.172;12.824;2023-03-23T15:22:53;4.00;;;3.13;;